createdAt,value
2018-03-24T00:01:08.991Z,33.63
2018-03-24T00:03:36.152Z,33.58
2018-03-24T00:06:03.296Z,33.50
2018-03-24T00:08:29.703Z,34.50
2018-03-24T00:10:56.120Z,34.22
2018-03-24T00:13:22.489Z,34.90
2018-03-24T00:15:48.899Z,35.38
2018-03-24T00:18:15.276Z,34.90
2018-03-24T00:20:42.420Z,35.15
2018-03-24T00:23:09.551Z,33.80
2018-03-24T00:25:35.962Z,33.70
2018-03-24T00:28:02.374Z,33.72
2018-03-24T00:30:28.824Z,33.40
2018-03-24T00:32:55.251Z,34.97
2018-03-24T00:35:21.638Z,35.33
2018-03-24T00:37:48.785Z,34.80
2018-03-24T00:40:15.163Z,34.60
2018-03-24T00:42:41.589Z,35.25
2018-03-24T00:45:07.994Z,33.93
2018-03-24T00:47:35.111Z,34.65
2018-03-24T00:50:01.536Z,35.07
2018-03-24T00:52:27.988Z,35.10
2018-03-24T00:54:54.376Z,34.88
2018-03-24T00:57:20.807Z,35.75
2018-03-24T00:59:47.197Z,36.35
2018-03-24T01:02:13.602Z,34.78
2018-03-24T01:04:40.012Z,36.90
2018-03-24T01:07:06.414Z,36.17
2018-03-24T01:09:32.800Z,36.75
2018-03-24T01:11:59.227Z,36.35
2018-03-24T01:14:25.644Z,36.95
2018-03-24T01:16:52.022Z,37.00
2018-03-24T01:19:18.435Z,36.77
2018-03-24T01:21:44.849Z,36.45
2018-03-24T01:24:11.230Z,36.30
2018-03-24T01:26:37.647Z,35.95
2018-03-24T01:29:04.041Z,36.70
2018-03-24T01:31:31.187Z,38.95
2018-03-24T01:33:58.326Z,37.92
2018-03-24T01:36:25.459Z,37.75
2018-03-24T01:38:51.863Z,37.10
2018-03-24T01:41:25.236Z,39.20
2018-03-24T01:43:51.648Z,38.15
2018-03-24T01:46:18.804Z,37.30
2018-03-24T01:48:45.966Z,36.80
2018-03-24T01:51:12.352Z,38.30
2018-03-24T01:53:50.927Z,40.00
2018-03-24T01:56:17.307Z,37.92
2018-03-24T01:58:43.708Z,40.00
2018-03-24T02:01:10.114Z,39.67
2018-03-24T02:03:37.240Z,39.03
2018-03-24T02:06:03.654Z,40.90
2018-03-24T02:08:30.054Z,41.00
2018-03-24T02:10:56.462Z,40.45
2018-03-24T02:13:23.587Z,40.47
2018-03-24T02:15:50.046Z,42.00
2018-03-24T02:18:17.187Z,43.47
2018-03-24T02:20:43.655Z,42.05
2018-03-24T02:23:10.063Z,44.07
2018-03-24T02:25:37.235Z,43.97
2018-03-24T02:28:03.659Z,44.13
2018-03-24T02:30:30.823Z,45.22
2018-03-24T02:32:57.287Z,46.67
2018-03-24T02:35:23.692Z,46.45
2018-03-24T02:37:50.135Z,49.40
2018-03-24T02:40:16.559Z,46.25
2018-03-24T02:42:42.977Z,47.60
2018-03-24T02:45:10.132Z,49.00
2018-03-24T02:47:37.247Z,49.55
2018-03-24T02:50:03.683Z,48.80
2018-03-24T02:52:30.106Z,49.13
2018-03-24T02:54:56.506Z,50.38
2018-03-24T02:57:22.933Z,50.92
2018-03-24T02:59:49.326Z,50.80
2018-03-24T03:02:15.739Z,52.17
2018-03-24T03:04:42.131Z,53.30
2018-03-24T03:07:08.531Z,54.30
2018-03-24T03:09:34.918Z,54.45
2018-03-24T03:12:01.317Z,56.30
2018-03-24T03:14:28.456Z,55.28
2018-03-24T03:16:54.867Z,57.08
2018-03-24T03:19:21.310Z,52.88
2018-03-24T03:21:50.702Z,55.00
2018-03-24T03:24:17.141Z,56.63
2018-03-24T03:26:43.527Z,57.65
2018-03-24T03:29:09.942Z,55.03
2018-03-24T03:31:37.141Z,53.95
2018-03-24T03:34:03.532Z,53.50
2018-03-24T03:36:30.694Z,54.97
2018-03-24T03:38:57.080Z,55.83
2018-03-24T03:41:23.511Z,55.15
2018-03-24T03:43:49.895Z,52.40
2018-03-24T03:46:17.040Z,49.40
2018-03-24T03:48:44.196Z,49.53
2018-03-24T03:51:11.331Z,49.95
2018-03-24T03:53:38.487Z,47.47
2018-03-24T03:56:05.614Z,47.22
2018-03-24T03:58:32.026Z,44.40
2018-03-24T04:00:58.417Z,47.58
2018-03-24T04:03:25.564Z,49.78
2018-03-24T04:05:52.734Z,50.58
2018-03-24T04:08:19.120Z,50.80
2018-03-24T04:10:45.536Z,51.25
2018-03-24T04:13:11.918Z,52.42
2018-03-24T04:15:39.079Z,53.95
2018-03-24T04:18:05.478Z,53.22
2018-03-24T04:20:31.890Z,55.90
2018-03-24T04:22:58.292Z,56.67
2018-03-24T04:25:24.683Z,57.17
2018-03-24T04:27:51.092Z,61.20
2018-03-24T04:30:17.522Z,57.03
2018-03-24T04:32:43.931Z,59.13
2018-03-24T04:35:10.322Z,58.95
2018-03-24T04:37:37.478Z,60.95
2018-03-24T04:40:04.635Z,59.83
2018-03-24T04:42:31.807Z,62.33
2018-03-24T04:44:58.228Z,60.77
2018-03-24T04:47:25.356Z,60.45
2018-03-24T04:49:51.860Z,62.08
2018-03-24T04:52:18.246Z,60.35
2018-03-24T04:54:45.388Z,57.88
2018-03-24T04:57:12.512Z,58.78
2018-03-24T04:59:38.930Z,60.25
2018-03-24T05:02:05.338Z,57.65
2018-03-24T05:04:31.738Z,60.53
2018-03-24T05:06:58.143Z,61.05
2018-03-24T05:09:24.522Z,58.85
2018-03-24T05:11:51.670Z,60.67
2018-03-24T05:14:18.790Z,66.12
2018-03-24T05:16:45.182Z,70.87
2018-03-24T05:19:11.588Z,81.18
2018-03-24T05:21:38.706Z,88.62
2018-03-24T05:24:05.175Z,83.85
2018-03-24T05:26:32.338Z,78.22
2018-03-24T05:28:59.484Z,84.18
2018-03-24T05:31:26.641Z,85.32
2018-03-24T05:34:00.681Z,74.15
2018-03-24T05:36:27.108Z,83.05
2018-03-24T05:38:53.484Z,80.47
2018-03-24T05:41:19.893Z,81.40
2018-03-24T05:43:46.298Z,73.83
2018-03-24T05:46:12.710Z,70.35
2018-03-24T05:48:39.857Z,70.10
2018-03-24T05:51:07.011Z,66.20
2018-03-24T05:53:34.304Z,67.28
2018-03-24T05:56:00.748Z,65.75
2018-03-24T05:58:27.145Z,60.80
2018-03-24T06:00:54.300Z,58.92
2018-03-24T06:03:20.688Z,59.58
2018-03-24T06:05:47.115Z,58.05
2018-03-24T06:08:13.495Z,53.28
2018-03-24T06:10:40.650Z,54.07
2018-03-24T06:13:07.767Z,49.90
2018-03-24T06:15:34.171Z,49.08
2018-03-24T06:18:00.600Z,48.67
2018-03-24T06:20:26.979Z,45.90
2018-03-24T06:22:53.375Z,41.50
2018-03-24T06:25:19.763Z,42.33
2018-03-24T06:27:46.885Z,42.15
2018-03-24T06:30:14.329Z,40.10
2018-03-24T06:32:40.759Z,39.72
2018-03-24T06:35:07.208Z,38.63
2018-03-24T06:37:33.619Z,38.47
2018-03-24T06:40:00.080Z,35.50
2018-03-24T06:42:26.547Z,35.55
2018-03-24T06:44:53.733Z,28.62
2018-03-24T07:21:28.862Z,41.20
2018-03-24T07:23:55.264Z,43.70
2018-03-24T07:26:21.686Z,41.50
2018-03-24T07:28:48.123Z,40.38
2018-03-24T07:31:14.518Z,37.60
2018-03-24T07:33:41.664Z,35.20
2018-03-24T07:36:08.034Z,35.20
2018-03-24T07:38:34.478Z,32.00
2018-03-24T07:41:00.861Z,35.17
2018-03-24T07:43:27.273Z,31.90
2018-03-24T07:45:53.708Z,33.28
2018-03-24T07:48:20.146Z,30.85
2018-03-24T07:50:46.623Z,31.30
2018-03-24T07:53:13.791Z,31.27
2018-03-24T07:55:40.271Z,29.80
2018-03-24T07:58:06.658Z,30.75
2018-03-24T08:00:33.066Z,30.77
2018-03-24T08:03:00.220Z,30.12
2018-03-24T08:05:27.410Z,29.85
2018-03-24T08:07:53.833Z,29.58
2018-03-24T08:10:20.229Z,29.90
2018-03-24T08:12:47.399Z,28.48
2018-03-24T08:15:14.521Z,29.75
2018-03-24T08:17:40.931Z,30.15
2018-03-24T08:20:07.314Z,28.25
2018-03-24T08:22:34.463Z,28.75
2018-03-24T08:25:01.657Z,28.95
2018-03-24T08:27:28.025Z,28.48
2018-03-24T08:29:54.528Z,28.48
2018-03-24T08:32:20.910Z,26.95
2018-03-24T08:34:48.056Z,29.33
2018-03-24T08:37:15.223Z,27.95
2018-03-24T08:39:42.332Z,27.15
2018-03-24T08:42:08.730Z,30.88
2018-03-24T08:44:35.109Z,29.90
2018-03-24T08:47:01.513Z,28.98
2018-03-24T08:49:27.924Z,30.45
2018-03-24T08:51:54.316Z,28.90
2018-03-24T08:54:20.794Z,29.37
2018-03-24T08:56:47.182Z,29.25
2018-03-24T08:59:13.590Z,30.67
2018-03-24T09:01:40.005Z,28.05
2018-03-24T09:04:06.418Z,27.15
2018-03-24T09:06:33.558Z,29.25
2018-03-24T09:09:00.720Z,28.67
2018-03-24T09:11:27.123Z,28.10
2018-03-24T09:13:53.526Z,29.40
2018-03-24T09:16:19.940Z,30.73
2018-03-24T09:18:53.173Z,28.40
2018-03-24T09:21:19.571Z,27.62
2018-03-24T09:23:45.978Z,28.67
2018-03-24T09:26:13.132Z,28.42
2018-03-24T09:28:40.251Z,29.08
2018-03-24T09:31:06.754Z,28.30
2018-03-24T09:33:33.136Z,26.67
2018-03-24T09:35:59.531Z,25.25
2018-03-24T09:38:25.923Z,22.90
2018-03-24T09:40:53.070Z,23.42
2018-03-24T09:43:20.213Z,24.23
2018-03-24T09:45:46.611Z,21.73
2018-03-24T09:48:13.029Z,23.20
2018-03-24T09:50:39.411Z,21.92
2018-03-24T09:53:06.549Z,20.90
2018-03-24T09:55:32.954Z,20.43
2018-03-24T09:57:59.368Z,20.67
2018-03-24T10:00:25.806Z,21.30
2018-03-24T10:02:52.229Z,23.10
2018-03-24T10:05:18.653Z,23.12
2018-03-24T10:07:45.822Z,21.87
2018-03-24T10:10:12.249Z,23.15
2018-03-24T10:12:38.670Z,23.30
2018-03-24T10:15:05.846Z,21.25
2018-03-24T10:17:32.263Z,20.98
2018-03-24T10:19:59.374Z,24.00
2018-03-24T10:25:21.852Z,22.55
2018-03-24T10:27:48.267Z,22.15
2018-03-24T10:30:14.648Z,23.37
2018-03-24T10:32:41.070Z,20.80
2018-03-24T10:35:08.241Z,20.27
2018-03-24T10:37:40.792Z,20.48
2018-03-24T10:40:08.016Z,19.60
2018-03-24T10:42:34.430Z,16.17
2018-03-24T10:45:00.847Z,17.93
2018-03-24T10:47:27.235Z,19.40
2018-03-24T10:49:53.642Z,18.10
2018-03-24T10:52:20.067Z,17.03
2018-03-24T10:54:46.549Z,16.58
2018-03-24T10:57:12.985Z,17.87
2018-03-24T10:59:40.121Z,17.92
2018-03-24T11:02:06.543Z,17.97
2018-03-24T11:04:32.938Z,15.57
2018-03-24T11:06:59.341Z,14.10
2018-03-24T11:09:26.477Z,15.20
2018-03-24T11:11:52.884Z,14.57
2018-03-24T11:14:19.254Z,14.00
2018-03-24T11:16:45.683Z,14.90
2018-03-24T11:19:12.108Z,15.85
2018-03-24T11:21:38.478Z,16.10
2018-03-24T11:24:04.890Z,16.17
2018-03-24T11:26:31.325Z,15.98
2018-03-24T11:28:57.709Z,17.50
2018-03-24T11:31:24.076Z,17.05
2018-03-24T11:33:50.490Z,15.40
2018-03-24T11:36:16.890Z,17.50
2018-03-24T11:38:43.322Z,16.40
2018-03-24T11:41:09.729Z,17.55
2018-03-24T11:43:36.119Z,18.30
2018-03-24T11:46:02.566Z,18.80
2018-03-24T11:48:28.962Z,18.17
2018-03-24T11:50:55.367Z,17.23
2018-03-24T11:53:34.840Z,17.48
2018-03-24T11:56:01.250Z,17.85
2018-03-24T11:58:28.431Z,17.27
2018-03-24T12:00:54.833Z,16.77
2018-03-24T12:03:22.059Z,17.65
2018-03-24T12:05:48.458Z,18.43
2018-03-24T12:08:15.656Z,19.30
2018-03-24T12:10:42.031Z,19.12
2018-03-24T12:13:08.470Z,21.00
2018-03-24T12:15:34.860Z,18.25
2018-03-24T12:18:01.271Z,19.37
2018-03-24T12:20:27.718Z,18.33
2018-03-24T12:22:54.119Z,16.55
2018-03-24T12:25:20.531Z,16.52
2018-03-24T12:27:46.922Z,16.48
2018-03-24T12:30:13.329Z,16.30
2018-03-24T12:32:39.731Z,17.27
2018-03-24T12:35:06.158Z,15.88
2018-03-24T12:37:33.326Z,16.80
2018-03-24T12:39:59.715Z,16.08
2018-03-24T12:42:26.125Z,15.90
2018-03-24T12:44:52.532Z,15.55
2018-03-24T12:47:18.980Z,16.12
2018-03-24T12:49:45.491Z,15.98
2018-03-24T12:52:11.916Z,17.17
2018-03-24T12:54:38.338Z,17.55
2018-03-24T12:57:05.477Z,15.80
2018-03-24T12:59:31.882Z,17.50
2018-03-24T13:01:58.278Z,17.17
2018-03-24T13:04:25.444Z,16.90
2018-03-24T13:06:51.865Z,16.87
2018-03-24T13:09:18.244Z,18.05
2018-03-24T13:11:44.653Z,17.70
2018-03-24T13:14:11.097Z,16.60
2018-03-24T13:16:37.507Z,16.58
2018-03-24T13:19:03.901Z,16.77
2018-03-24T13:21:30.305Z,15.95
2018-03-24T13:23:56.716Z,16.90
2018-03-24T13:26:23.090Z,17.23
2018-03-24T13:28:49.520Z,19.55
2018-03-24T13:31:15.919Z,19.80
2018-03-24T13:33:42.338Z,19.80
2018-03-24T13:36:08.724Z,20.15
2018-03-24T13:38:35.137Z,20.58
2018-03-24T13:41:01.602Z,20.83
2018-03-24T13:43:28.010Z,20.05
2018-03-24T13:45:54.408Z,20.50
2018-03-24T13:48:20.812Z,18.65
2018-03-24T13:50:47.238Z,20.23
2018-03-24T13:53:13.610Z,19.10
2018-03-24T13:55:40.027Z,19.70
2018-03-24T13:58:07.247Z,19.30
2018-03-24T14:00:33.642Z,21.73
2018-03-24T14:03:00.100Z,19.95
2018-03-24T14:05:26.483Z,19.67
2018-03-24T14:07:53.634Z,20.17
2018-03-24T14:10:20.766Z,20.40
2018-03-24T14:12:47.187Z,20.70
2018-03-24T14:15:13.626Z,19.58
2018-03-24T14:17:40.005Z,21.17
2018-03-24T14:20:06.441Z,21.35
2018-03-24T14:22:32.862Z,20.17
2018-03-24T14:25:00.010Z,20.27
2018-03-24T14:27:27.143Z,19.58
2018-03-24T14:29:53.615Z,19.73
2018-03-24T14:32:20.072Z,20.67
2018-03-24T14:34:46.518Z,19.98
2018-03-24T14:37:12.939Z,19.83
2018-03-24T14:39:39.395Z,20.30
2018-03-24T14:42:05.830Z,20.20
2018-03-24T14:44:32.241Z,20.20
2018-03-24T14:46:58.671Z,19.90
2018-03-24T14:49:25.083Z,19.45
2018-03-24T14:51:52.376Z,20.90
2018-03-24T14:54:18.791Z,18.10
2018-03-24T14:56:45.199Z,19.15
2018-03-24T14:59:12.382Z,20.05
2018-03-24T15:01:38.802Z,19.70
2018-03-24T15:04:05.249Z,21.30
2018-03-24T15:06:31.740Z,20.67
2018-03-24T15:08:58.128Z,19.70
2018-03-24T15:11:24.539Z,21.00
2018-03-24T15:13:50.935Z,20.58
2018-03-24T15:16:17.385Z,21.15
2018-03-24T15:18:44.539Z,19.25
2018-03-24T15:21:11.707Z,21.50
2018-03-24T15:23:38.149Z,75.82
2018-03-24T15:26:04.548Z,57.03
2018-03-24T15:28:30.961Z,21.80
2018-03-24T15:31:09.615Z,20.73
2018-03-24T15:33:49.052Z,19.48
2018-03-24T15:36:28.523Z,20.30
2018-03-24T15:38:54.929Z,22.05
2018-03-24T15:41:22.074Z,20.48
2018-03-24T15:43:48.549Z,20.42
2018-03-24T15:46:14.945Z,27.00
2018-03-24T15:48:42.059Z,31.40
2018-03-24T15:51:08.484Z,77.50
2018-03-24T15:53:34.863Z,62.55
2018-03-24T15:56:01.301Z,96.82
2018-03-24T15:58:27.677Z,65.95
2018-03-24T16:00:54.146Z,34.53
2018-03-24T16:03:20.563Z,108.18
2018-03-24T16:05:46.946Z,64.22
2018-03-24T16:08:14.086Z,87.35
2018-03-24T16:10:40.478Z,38.95
2018-03-24T16:13:06.919Z,25.95
2018-03-24T16:15:33.304Z,25.73
2018-03-24T16:18:00.462Z,18.90
2018-03-24T16:20:26.875Z,19.17
2018-03-24T16:22:54.003Z,19.05
2018-03-24T16:25:20.406Z,20.33
2018-03-24T16:27:46.786Z,17.75
2018-03-24T16:30:13.202Z,18.60
2018-03-24T16:32:39.574Z,19.87
2018-03-24T16:35:06.712Z,18.75
2018-03-24T16:37:33.135Z,18.48
2018-03-24T16:39:59.526Z,18.65
2018-03-24T16:42:25.950Z,19.58
2018-03-24T16:44:52.324Z,18.35
2018-03-24T16:47:18.742Z,19.33
2018-03-24T16:49:45.121Z,18.23
2018-03-24T16:52:12.264Z,18.80
2018-03-24T16:54:38.690Z,18.60
2018-03-24T16:57:05.063Z,18.67
2018-03-24T16:59:31.514Z,19.95
2018-03-24T17:01:57.927Z,19.20
2018-03-24T17:04:24.380Z,19.67
2018-03-24T17:06:50.803Z,18.65
2018-03-24T17:09:17.214Z,18.80
2018-03-24T17:11:44.393Z,20.10
2018-03-24T17:14:10.832Z,22.87
2018-03-24T17:16:37.958Z,19.20
2018-03-24T17:19:05.073Z,19.20
2018-03-24T17:21:31.493Z,20.60
2018-03-24T17:23:57.858Z,17.83
2018-03-24T17:26:24.396Z,17.75
2018-03-24T17:28:50.821Z,18.00
2018-03-24T17:31:17.210Z,17.65
2018-03-24T17:33:43.630Z,17.70
2018-03-24T17:36:10.015Z,16.83
2018-03-24T17:38:36.419Z,17.65
2018-03-24T17:41:02.833Z,17.60
2018-03-24T17:43:29.239Z,19.02
2018-03-24T17:45:55.722Z,19.30
2018-03-24T17:48:22.104Z,18.30
2018-03-24T17:50:48.540Z,19.58
2018-03-24T17:53:14.929Z,18.65
2018-03-24T17:55:41.373Z,17.58
2018-03-24T17:58:07.778Z,17.98
2018-03-24T18:00:34.248Z,18.25
2018-03-24T18:03:00.667Z,18.73
2018-03-24T18:05:27.066Z,19.02
2018-03-24T18:07:54.250Z,19.80
2018-03-24T18:10:20.649Z,18.80
2018-03-24T18:12:47.798Z,18.10
2018-03-24T18:15:14.924Z,19.50
2018-03-24T18:17:41.333Z,19.23
2018-03-24T18:20:07.731Z,19.70
2018-03-24T18:22:34.182Z,18.30
2018-03-24T18:25:00.651Z,18.70
2018-03-24T18:27:27.046Z,18.35
2018-03-24T18:29:53.486Z,19.08
2018-03-24T18:32:19.895Z,18.10
2018-03-24T18:34:47.056Z,18.92
2018-03-24T18:37:13.454Z,19.05
2018-03-24T18:39:40.615Z,19.58
2018-03-24T18:42:07.814Z,18.90
2018-03-24T18:44:34.229Z,18.83
2018-03-24T18:47:00.686Z,20.10
2018-03-24T18:49:27.096Z,19.60
2018-03-24T18:51:53.533Z,19.35
2018-03-24T18:54:19.991Z,20.70
2018-03-24T18:56:46.444Z,20.80
2018-03-24T19:26:02.931Z,16.33
2018-03-24T19:28:29.350Z,17.23
2018-03-24T19:30:55.728Z,18.27
2018-03-24T19:33:22.155Z,19.58
2018-03-24T19:35:48.577Z,20.23
2018-03-24T19:38:14.981Z,18.25
2018-03-24T19:40:41.373Z,19.30
2018-03-24T19:43:07.738Z,19.67
2018-03-24T19:45:34.220Z,20.98
2018-03-24T19:48:00.583Z,19.80
2018-03-24T19:50:26.999Z,20.08
2018-03-24T19:52:53.436Z,22.30
2018-03-24T19:55:19.860Z,20.80
2018-03-24T19:57:46.287Z,19.95
2018-03-24T20:00:12.703Z,20.35
2018-03-24T20:02:39.154Z,20.80
2018-03-24T20:05:05.650Z,23.60
2018-03-24T20:07:32.878Z,24.20
2018-03-24T20:10:00.040Z,23.27
2018-03-24T20:12:27.189Z,22.33
2018-03-24T20:14:54.375Z,23.10
2018-03-24T20:17:20.756Z,22.00
2018-03-24T20:19:47.178Z,21.05
2018-03-24T20:22:13.638Z,18.83
2018-03-24T20:24:40.047Z,21.90
2018-03-24T20:27:06.492Z,21.65
2018-03-24T20:29:32.919Z,23.85
2018-03-24T20:31:59.371Z,22.40
2018-03-24T20:34:25.766Z,26.45
2018-03-24T20:36:52.202Z,23.42
2018-03-24T20:39:18.592Z,27.35
2018-03-24T20:41:45.752Z,30.92
2018-03-24T20:44:12.878Z,31.23
2018-03-24T20:46:39.299Z,30.40
2018-03-24T20:49:06.444Z,40.78
2018-03-24T20:51:32.861Z,42.88
2018-03-24T20:53:59.272Z,28.12
2018-03-24T20:56:25.685Z,29.00
2018-03-24T20:58:52.895Z,28.60
2018-03-24T21:01:19.284Z,29.70
2018-03-24T21:03:45.723Z,28.52
2018-03-24T21:06:12.129Z,27.80
2018-03-24T21:08:39.295Z,28.15
2018-03-24T21:11:06.428Z,27.83
2018-03-24T21:13:32.839Z,26.05
2018-03-24T21:15:59.246Z,26.70
2018-03-24T21:18:25.635Z,24.90
2018-03-24T21:20:52.821Z,27.40
2018-03-24T21:23:19.291Z,26.42
2018-03-24T21:25:45.682Z,25.73
2018-03-24T21:28:12.062Z,26.73
2018-03-24T21:30:38.519Z,26.10
2018-03-24T21:33:04.990Z,27.13
2018-03-24T21:35:31.432Z,24.37
2018-03-24T21:37:57.823Z,25.45
2018-03-24T21:40:24.226Z,25.95
2018-03-24T21:42:50.645Z,25.90
2018-03-24T21:45:17.040Z,26.30
2018-03-24T21:47:44.221Z,25.40
2018-03-24T21:50:10.628Z,24.48
2018-03-24T21:52:37.786Z,26.60
2018-03-24T21:55:04.903Z,25.40
2018-03-24T21:57:31.334Z,24.55
2018-03-24T21:59:57.758Z,25.83
2018-03-24T22:02:24.165Z,26.02
2018-03-24T22:04:50.605Z,23.17
2018-03-24T22:07:17.008Z,24.23
2018-03-24T22:09:44.399Z,24.40
2018-03-24T22:12:10.794Z,25.00
2018-03-24T22:14:37.963Z,23.85
2018-03-24T22:17:04.348Z,22.80
2018-03-24T22:19:30.768Z,23.80
2018-03-24T22:21:57.206Z,22.00
2018-03-24T22:24:23.609Z,23.60
2018-03-24T22:26:50.036Z,23.15
2018-03-24T22:29:16.444Z,23.17
2018-03-24T22:31:43.622Z,22.50
2018-03-24T22:41:28.790Z,22.42
2018-03-24T22:43:55.200Z,19.87
